Terminal Aerodrome Forecast
Issued by NWS Lake Charles, LA

Home | Current Version | Previous Version | Text Only | Print | Product List | Glossary On
Versions: 1 2 3 4 5 6 7 8 9 10 11 12 13 14 15 16 17 18 19 20 21 22 23 24 25 26 27 28 29 30 31 32 33 34
175
FTUS44 KLCH 070240 AAA
TAFAEX
TAF AMD
KAEX 070240Z 0703/0724 35006KT P6SM SCT050 SCT250
     FM070800 01006KT P6SM BKN015
      TEMPO 0711/0714 5SM BR OVC007
     FM072000 03006KT P6SM SCT015 BKN030=

USA.gov is the U.S. government's official web portal to all federal, state and local government web resources and services.